Time;durP1;ratioP1;P1;durP2;ratioP2;P2;SDS_P1;SDS_P2;PMS_P1;PMS_P2;Temp;Humidity;BMP_temperature;BMP_pressure;BME280_temperature;BME280_humidity;BME280_pressure;Samples;Min_cycle;Max_cycle;Signal;HPM_P1;HPM_P2
2024/02/02 00:00:14;;;;;;;3.53;2.00;;;;;17.20;102021.00;;;;2061309;28;20275;-59
2024/02/02 00:01:14;;;;;;;7.03;2.40;;;;;17.20;102025.00;;;;2060023;28;20215;-59
2024/02/02 00:02:15;;;;;;;4.50;2.20;;;;;17.20;102011.00;;;;2061285;28;20461;-59
2024/02/02 00:03:15;;;;;;;3.63;2.17;;;;;17.20;102015.00;;;;2061316;28;20229;-58
2024/02/02 00:04:15;;;;;;;4.83;1.80;;;;;17.20;102014.00;;;;2045295;28;20642;-59
2024/02/02 00:05:16;;;;;;;4.80;2.00;;;;;17.20;102022.00;;;;2059412;28;20224;-59
2024/02/02 00:06:16;;;;;;;4.77;2.30;;;;;17.20;102014.00;;;;2060116;28;20279;-58
2024/02/02 00:07:17;;;;;;;5.40;2.60;;;;;17.20;102013.00;;;;2061260;28;20227;-58
2024/02/02 00:08:18;;;;;;;5.63;2.47;;;;;17.20;102020.00;;;;2060859;28;20224;-58
2024/02/02 00:09:19;;;;;;;4.00;2.33;;;;;17.20;102014.00;;;;2051402;28;20694;-58
2024/02/02 00:10:19;;;;;;;4.40;1.65;;;;;17.20;102016.00;;;;2061010;28;20216;-59
2024/02/02 00:11:20;;;;;;;4.27;2.30;;;;;17.20;102009.00;;;;2060490;28;20219;-59
2024/02/02 00:12:21;;;;;;;4.53;2.73;;;;;17.20;102003.00;;;;2061008;28;20266;-59
2024/02/02 00:13:21;;;;;;;4.83;2.10;;;;;17.20;102007.00;;;;2059960;28;20463;-58
2024/02/02 00:14:21;;;;;;;4.53;2.00;;;;;17.20;102003.00;;;;2051196;28;20228;-59
2024/02/02 00:15:22;;;;;;;5.10;1.73;;;;;17.30;102002.00;;;;2059411;28;20218;-58
2024/02/02 00:16:22;;;;;;;3.53;1.90;;;;;17.20;102001.00;;;;2061179;28;20579;-59
2024/02/02 00:17:23;;;;;;;3.43;1.80;;;;;17.20;102000.00;;;;2061078;28;20210;-58
2024/02/02 00:18:23;;;;;;;4.43;2.23;;;;;17.20;101997.00;;;;2051906;28;20214;-59
2024/02/02 00:19:23;;;;;;;3.37;1.97;;;;;17.20;101988.00;;;;2042969;28;20297;-58
2024/02/02 00:20:24;;;;;;;6.50;2.50;;;;;17.20;101988.00;;;;2059813;28;20211;-59
2024/02/02 00:21:24;;;;;;;3.30;2.00;;;;;17.20;101987.00;;;;2061061;28;20208;-59
2024/02/02 00:22:24;;;;;;;4.30;1.97;;;;;17.20;101989.00;;;;2060767;28;20636;-59
2024/02/02 00:23:25;;;;;;;4.17;2.00;;;;;17.20;101985.00;;;;2057340;28;20619;-58
2024/02/02 00:24:25;;;;;;;6.30;2.00;;;;;17.20;101989.00;;;;2034651;28;20649;-59
2024/02/02 00:25:26;;;;;;;8.60;2.23;;;;;17.20;101977.00;;;;2050681;28;20940;-59
2024/02/02 00:26:26;;;;;;;3.53;1.70;;;;;17.20;101987.00;;;;2061063;28;20627;-59
2024/02/02 00:27:27;;;;;;;5.83;2.37;;;;;17.20;101982.00;;;;2059220;28;20480;-59
2024/02/02 00:28:28;;;;;;;4.43;1.93;;;;;17.20;101982.00;;;;2060781;28;20256;-59
2024/02/02 00:29:28;;;;;;;3.87;2.70;;;;;17.20;101976.00;;;;2050671;28;20252;-59
2024/02/02 00:30:34;;;;;;;4.60;2.30;;;;;17.20;101989.00;;;;2061133;28;20221;-58
2024/02/02 00:31:35;;;;;;;3.28;1.70;;;;;17.20;101976.00;;;;2061046;28;20799;-59
2024/02/02 00:32:35;;;;;;;5.37;2.27;;;;;17.20;101976.00;;;;2060027;28;20287;-59
2024/02/02 00:33:35;;;;;;;4.90;2.10;;;;;17.20;101977.00;;;;2060111;28;20224;-58
2024/02/02 00:34:36;;;;;;;5.40;1.87;;;;;17.20;101987.00;;;;2050111;28;20228;-58
2024/02/02 00:35:36;;;;;;;4.03;1.90;;;;;17.20;101975.00;;;;2059801;28;20217;-58
2024/02/02 00:36:36;;;;;;;5.63;2.57;;;;;17.20;101970.00;;;;2059985;28;20256;-59
2024/02/02 00:37:37;;;;;;;3.80;1.80;;;;;17.20;101960.00;;;;2057451;28;20212;-58
2024/02/02 00:38:37;;;;;;;5.40;2.07;;;;;17.20;101963.00;;;;2060812;28;20206;-59
2024/02/02 00:39:38;;;;;;;3.57;1.87;;;;;17.20;101957.00;;;;2050269;28;20222;-58
2024/02/02 00:40:38;;;;;;;4.20;1.90;;;;;17.20;101955.00;;;;2060675;28;20216;-59
2024/02/02 00:41:38;;;;;;;5.17;2.27;;;;;17.20;101954.00;;;;2058739;28;20220;-58
2024/02/02 00:42:39;;;;;;;3.50;1.97;;;;;17.20;101950.00;;;;2060126;28;20251;-58
2024/02/02 00:43:39;;;;;;;4.30;2.13;;;;;17.20;101942.00;;;;2060032;28;20235;-59
2024/02/02 00:44:39;;;;;;;5.53;2.23;;;;;17.20;101940.00;;;;2050963;28;20233;-59
2024/02/02 00:45:40;;;;;;;3.70;1.97;;;;;17.20;101928.00;;;;2059734;28;20234;-59
2024/02/02 00:46:40;;;;;;;6.17;2.10;;;;;17.20;101928.00;;;;2059968;28;20222;-58
2024/02/02 00:47:41;;;;;;;3.27;1.97;;;;;17.20;101923.00;;;;2060958;28;20216;-59
2024/02/02 00:48:42;;;;;;;6.73;2.00;;;;;16.80;101933.00;;;;2060549;28;20387;-59
2024/02/02 00:49:42;;;;;;;5.67;2.40;;;;;17.20;101933.00;;;;2051335;28;20471;-59
2024/02/02 00:50:43;;;;;;;4.63;1.90;;;;;17.20;101940.00;;;;2060879;28;20240;-58
2024/02/02 00:51:43;;;;;;;3.50;1.80;;;;;17.20;101936.00;;;;2060520;28;20252;-59
2024/02/02 00:52:43;;;;;;;5.03;1.80;;;;;17.20;101929.00;;;;2060965;28;20296;-59
2024/02/02 00:53:43;;;;;;;5.23;2.40;;;;;17.20;101923.00;;;;2060420;28;20313;-59
2024/02/02 00:54:44;;;;;;;4.37;2.00;;;;;17.20;101926.00;;;;2050949;28;20798;-59
2024/02/02 00:55:44;;;;;;;4.00;1.80;;;;;17.20;101923.00;;;;2059032;28;20864;-59
2024/02/02 00:56:45;;;;;;;6.20;1.90;;;;;17.20;101926.00;;;;2060611;28;20240;-60
2024/02/02 00:57:46;;;;;;;4.03;2.27;;;;;17.20;101938.00;;;;2061037;28;20243;-59
2024/02/02 00:58:47;;;;;;;7.30;2.47;;;;;17.20;101937.00;;;;2057917;28;20282;-58
2024/02/02 00:59:50;;;;;;;5.73;2.27;;;;;17.20;101935.00;;;;2051155;28;20225;-58
2024/02/02 01:00:50;;;;;;;6.85;2.78;;;;;17.20;101934.00;;;;2060189;28;21053;-63
2024/02/02 01:01:50;;;;;;;5.03;2.30;;;;;17.20;101932.00;;;;2060984;28;20221;-58
2024/02/02 01:02:51;;;;;;;4.10;1.70;;;;;17.20;101927.00;;;;2061044;28;20240;-58
2024/02/02 01:03:51;;;;;;;4.50;2.20;;;;;17.20;101916.00;;;;2056618;28;20221;-58
2024/02/02 01:04:52;;;;;;;5.07;2.00;;;;;17.20;101921.00;;;;2056129;28;20228;-59
2024/02/02 01:05:52;;;;;;;5.70;1.60;;;;;17.20;101919.00;;;;2058847;28;20238;-59
2024/02/02 01:06:53;;;;;;;4.60;1.97;;;;;17.20;101916.00;;;;2060451;28;20240;-59
2024/02/02 01:07:53;;;;;;;6.27;2.33;;;;;17.20;101918.00;;;;2060920;28;20213;-58
2024/02/02 01:08:54;;;;;;;6.07;2.07;;;;;17.20;101919.00;;;;2049373;28;20807;-59
2024/02/02 01:09:54;;;;;;;4.10;1.90;;;;;17.20;101923.00;;;;2060882;28;20221;-60
2024/02/02 01:10:54;;;;;;;7.27;2.77;;;;;17.10;101923.00;;;;2060278;28;20232;-59
2024/02/02 01:11:55;;;;;;;3.67;2.20;;;;;17.20;101919.00;;;;2060376;28;20228;-59
2024/02/02 01:12:55;;;;;;;4.70;2.17;;;;;17.20;101923.00;;;;2060847;28;20224;-58
2024/02/02 01:13:56;;;;;;;9.17;2.20;;;;;17.20;101924.00;;;;2050663;28;20261;-58
2024/02/02 01:14:56;;;;;;;4.20;2.27;;;;;17.20;101931.00;;;;2056375;28;20264;-58
2024/02/02 01:15:56;;;;;;;4.37;1.77;;;;;17.20;101927.00;;;;2059808;28;20214;-59
2024/02/02 01:16:57;;;;;;;4.13;2.53;;;;;17.20;101924.00;;;;2060801;28;20220;-58
2024/02/02 01:17:57;;;;;;;6.47;2.60;;;;;17.20;101920.00;;;;2060880;28;20304;-59
2024/02/02 01:18:57;;;;;;;6.30;1.77;;;;;17.20;101918.00;;;;2050566;28;20218;-58
2024/02/02 01:20:03;;;;;;;4.73;2.20;;;;;17.20;101924.00;;;;2060865;28;20274;-58
2024/02/02 01:21:04;;;;;;;4.55;2.20;;;;;17.10;101914.00;;;;2059956;28;20212;-59
2024/02/02 01:22:05;;;;;;;4.65;2.00;;;;;17.20;101912.00;;;;2058974;28;20283;-59
2024/02/02 01:23:06;;;;;;;4.93;2.10;;;;;17.10;101916.00;;;;2060296;28;20225;-58
2024/02/02 01:24:06;;;;;;;3.30;1.63;;;;;17.20;101910.00;;;;2050854;28;20232;-60
2024/02/02 01:25:09;;;;;;;5.07;2.60;;;;;17.20;101917.00;;;;2058633;28;20220;-59
2024/02/02 01:26:09;;;;;;;5.68;2.17;;;;;17.20;101922.00;;;;2051983;28;20519;-57
2024/02/02 01:27:10;;;;;;;4.70;2.37;;;;;17.20;101806.00;;;;2051934;28;20265;-58
2024/02/02 01:28:10;;;;;;;4.33;1.90;;;;;17.20;101926.00;;;;2046647;28;20214;-58
2024/02/02 01:29:10;;;;;;;3.90;1.90;;;;;17.20;101919.00;;;;2042516;28;20630;-58
2024/02/02 01:30:14;;;;;;;6.90;1.60;;;;;17.20;101928.00;;;;2051306;28;20220;-59
2024/02/02 01:31:14;;;;;;;5.10;2.10;;;;;17.20;101921.00;;;;2051554;28;20762;-58
2024/02/02 01:32:14;;;;;;;4.30;2.10;;;;;17.20;101918.00;;;;2060454;28;20231;-58
2024/02/02 01:33:15;;;;;;;5.00;1.90;;;;;17.20;101920.00;;;;2059365;28;20777;-58
2024/02/02 01:34:15;;;;;;;6.23;2.37;;;;;17.10;101920.00;;;;2050907;28;20854;-59
2024/02/02 01:35:17;;;;;;;4.00;2.10;;;;;17.10;101912.00;;;;2056206;28;20677;-58
2024/02/02 01:36:17;;;;;;;4.88;2.53;;;;;17.10;101904.00;;;;2050248;28;20263;-57
2024/02/02 01:37:18;;;;;;;4.80;2.27;;;;;17.20;101900.00;;;;2059273;28;20408;-59
2024/02/02 01:38:18;;;;;;;3.30;1.83;;;;;17.10;101906.00;;;;2060390;28;20310;-57
2024/02/02 01:39:19;;;;;;;3.50;1.70;;;;;17.10;101906.00;;;;2050491;28;20461;-58
2024/02/02 01:40:22;;;;;;;7.23;2.70;;;;;17.10;101910.00;;;;2058601;28;20348;-59
2024/02/02 01:41:22;;;;;;;3.72;2.00;;;;;17.10;101899.00;;;;2060533;28;20220;-60
2024/02/02 01:42:23;;;;;;;4.80;2.03;;;;;17.10;101898.00;;;;2060202;28;20217;-58
2024/02/02 01:43:26;;;;;;;5.95;2.40;;;;;17.10;101898.00;;;;2060363;28;20236;-61
2024/02/02 01:44:26;;;;;;;3.63;1.92;;;;;17.10;101895.00;;;;2049886;28;20639;-59
2024/02/02 01:45:27;;;;;;;4.53;1.87;;;;;16.70;101897.00;;;;2056453;28;20248;-58
2024/02/02 01:46:27;;;;;;;5.77;2.23;;;;;17.10;101900.00;;;;2059614;28;20247;-58
2024/02/02 01:47:27;;;;;;;7.27;2.23;;;;;17.10;101780.00;;;;2055088;28;20622;-59
2024/02/02 01:48:27;;;;;;;5.60;2.37;;;;;17.10;101903.00;;;;2058628;28;20595;-59
2024/02/02 01:49:28;;;;;;;6.10;2.23;;;;;17.10;101907.00;;;;2049978;28;20683;-58
2024/02/02 01:50:28;;;;;;;5.50;1.87;;;;;17.10;101911.00;;;;2059120;28;21011;-59
2024/02/02 01:51:28;;;;;;;5.07;2.20;;;;;17.20;101900.00;;;;2059905;28;20220;-59
2024/02/02 01:52:29;;;;;;;6.10;2.33;;;;;17.20;101906.00;;;;2060561;28;20236;-58
2024/02/02 01:53:29;;;;;;;3.50;1.90;;;;;17.10;101889.00;;;;2051248;28;20248;-58
2024/02/02 01:54:30;;;;;;;4.50;2.20;;;;;17.20;101900.00;;;;2035176;28;20620;-58
2024/02/02 01:55:30;;;;;;;4.00;1.90;;;;;17.20;101900.00;;;;2045764;28;20238;-58
2024/02/02 01:56:30;;;;;;;4.07;2.03;;;;;17.20;101899.00;;;;2053064;28;20221;-58
2024/02/02 01:57:31;;;;;;;5.90;2.33;;;;;17.10;101897.00;;;;2053286;28;20201;-59
2024/02/02 01:58:31;;;;;;;6.93;2.03;;;;;17.10;101906.00;;;;2061320;28;20206;-58
2024/02/02 01:59:31;;;;;;;5.87;2.00;;;;;17.20;101902.00;;;;2051086;28;20261;-58
2024/02/02 02:00:32;;;;;;;3.97;2.30;;;;;17.20;101899.00;;;;2053243;28;20218;-58
2024/02/02 02:01:32;;;;;;;3.87;2.10;;;;;17.20;101888.00;;;;2052759;28;20248;-58
2024/02/02 02:02:32;;;;;;;4.33;2.17;;;;;17.20;101885.00;;;;2053139;28;20218;-58
2024/02/02 02:03:33;;;;;;;3.30;1.80;;;;;17.20;101897.00;;;;2053206;28;20223;-59
2024/02/02 02:04:33;;;;;;;3.47;1.83;;;;;17.20;101880.00;;;;2050818;28;20228;-58
2024/02/02 02:05:35;;;;;;;4.60;2.10;;;;;17.20;101898.00;;;;2051916;28;20232;-58
2024/02/02 02:06:36;;;;;;;5.60;2.20;;;;;17.20;101875.00;;;;2052873;28;20239;-58
2024/02/02 02:07:36;;;;;;;5.97;2.10;;;;;17.20;101883.00;;;;2053388;28;20668;-58
2024/02/02 02:08:36;;;;;;;4.97;2.10;;;;;17.20;101886.00;;;;2053229;28;20666;-58
2024/02/02 02:09:37;;;;;;;4.30;1.93;;;;;17.20;101876.00;;;;2050298;28;20241;-58
2024/02/02 02:10:37;;;;;;;5.90;2.30;;;;;17.10;101883.00;;;;2045255;29;20217;-58
2024/02/02 02:11:37;;;;;;;4.70;2.33;;;;;17.10;101881.00;;;;2036994;29;20473;-58
2024/02/02 02:12:38;;;;;;;5.60;2.50;;;;;17.10;101882.00;;;;2053250;28;20234;-58
2024/02/02 02:13:38;;;;;;;4.83;2.17;;;;;17.10;101884.00;;;;2061074;28;20228;-58
2024/02/02 02:14:38;;;;;;;4.40;2.00;;;;;17.10;101877.00;;;;2050216;28;20209;-58
2024/02/02 02:15:39;;;;;;;7.00;2.57;;;;;17.10;101841.00;;;;2051482;28;20218;-58
2024/02/02 02:16:39;;;;;;;4.90;2.50;;;;;17.10;101875.00;;;;2052004;28;20269;-58
2024/02/02 02:17:39;;;;;;;4.20;2.47;;;;;17.10;101879.00;;;;2052142;28;20206;-58
2024/02/02 02:18:41;;;;;;;4.00;2.30;;;;;17.10;101870.00;;;;2060587;28;20311;-58
2024/02/02 02:19:41;;;;;;;3.67;1.58;;;;;17.10;101861.00;;;;2043384;28;20213;-58
2024/02/02 02:20:41;;;;;;;3.60;1.90;;;;;17.10;101861.00;;;;2052922;28;20534;-59
2024/02/02 02:21:42;;;;;;;3.80;1.80;;;;;17.10;101854.00;;;;2056005;28;21008;-58
2024/02/02 02:22:42;;;;;;;4.57;1.80;;;;;17.10;101857.00;;;;2045033;28;20211;-58
2024/02/02 02:23:42;;;;;;;3.43;2.00;;;;;17.20;101858.00;;;;2052741;28;20263;-58
2024/02/02 02:24:43;;;;;;;4.30;1.73;;;;;17.10;101854.00;;;;2051738;28;20230;-58
2024/02/02 02:25:43;;;;;;;5.00;2.10;;;;;17.10;101853.00;;;;2059723;28;20214;-58
2024/02/02 02:26:44;;;;;;;4.00;2.63;;;;;17.10;101858.00;;;;2053236;28;20202;-58
2024/02/02 02:27:45;;;;;;;3.30;2.17;;;;;17.10;101870.00;;;;2037479;29;20771;-58
2024/02/02 02:28:45;;;;;;;4.30;2.30;;;;;17.20;101871.00;;;;2043591;28;20213;-58
2024/02/02 02:29:45;;;;;;;4.90;1.70;;;;;17.10;101874.00;;;;2043319;28;20232;-58
2024/02/02 02:30:46;;;;;;;3.90;2.13;;;;;17.10;101872.00;;;;2052622;28;20742;-59
2024/02/02 02:31:55;;;;;;;4.97;2.00;;;;;17.10;101877.00;;;;2053260;28;20205;-58
2024/02/02 02:32:56;;;;;;;6.05;2.50;;;;;17.20;101875.00;;;;2059632;28;20300;-58
2024/02/02 02:33:56;;;;;;;5.93;2.23;;;;;17.20;101873.00;;;;2052026;28;20903;-58
2024/02/02 02:34:56;;;;;;;4.40;2.10;;;;;17.10;101877.00;;;;2051731;28;20665;-58
2024/02/02 02:35:57;;;;;;;4.00;2.03;;;;;17.10;101870.00;;;;2052532;28;20275;-58
2024/02/02 02:36:57;;;;;;;4.10;1.90;;;;;17.10;101862.00;;;;2061616;28;20242;-59
2024/02/02 02:37:57;;;;;;;4.40;1.90;;;;;17.10;101869.00;;;;2060948;28;20275;-58
2024/02/02 02:38:58;;;;;;;5.83;2.40;;;;;17.10;101858.00;;;;2051402;28;20295;-58
2024/02/02 02:39:58;;;;;;;5.10;1.70;;;;;17.10;101882.00;;;;2061111;28;20299;-59
2024/02/02 02:40:59;;;;;;;3.20;1.80;;;;;17.10;101879.00;;;;2061911;28;20213;-58
2024/02/02 02:42:00;;;;;;;4.80;2.30;;;;;17.10;101875.00;;;;2060904;28;20216;-63
2024/02/02 02:43:00;;;;;;;5.40;2.23;;;;;17.10;101871.00;;;;2061910;28;20221;-58
2024/02/02 02:44:00;;;;;;;6.97;2.47;;;;;17.10;101871.00;;;;2051439;28;20217;-59
2024/02/02 02:45:01;;;;;;;5.13;2.10;;;;;17.10;101869.00;;;;2059981;28;20296;-59
2024/02/02 02:46:02;;;;;;;4.23;1.80;;;;;17.10;101873.00;;;;2052907;28;20213;-58
2024/02/02 02:47:02;;;;;;;3.75;1.80;;;;;17.10;101863.00;;;;2055109;28;20776;-59
2024/02/02 02:48:02;;;;;;;5.77;2.33;;;;;17.10;101880.00;;;;2061215;28;20237;-58
2024/02/02 02:49:03;;;;;;;6.17;2.53;;;;;17.10;101881.00;;;;2051256;28;20253;-58
2024/02/02 02:50:04;;;;;;;3.53;1.87;;;;;17.10;101874.00;;;;2061612;28;20736;-58
2024/02/02 02:51:04;;;;;;;4.43;2.07;;;;;17.10;101881.00;;;;2061697;28;20209;-58
2024/02/02 02:52:05;;;;;;;5.00;2.37;;;;;17.10;101878.00;;;;2056129;28;20473;-58
2024/02/02 02:53:05;;;;;;;4.07;1.70;;;;;17.10;101875.00;;;;2059990;28;20210;-58
2024/02/02 02:54:06;;;;;;;6.03;1.97;;;;;17.10;101884.00;;;;2042319;28;20234;-59
2024/02/02 02:55:06;;;;;;;6.37;2.10;;;;;17.10;101875.00;;;;2051765;28;20268;-58
2024/02/02 02:56:08;;;;;;;5.40;2.03;;;;;17.10;101876.00;;;;2061376;28;20304;-58
2024/02/02 02:57:08;;;;;;;4.63;2.15;;;;;17.10;101874.00;;;;2060769;28;20223;-58
2024/02/02 02:58:08;;;;;;;4.40;2.03;;;;;17.10;101872.00;;;;2061444;28;20220;-58
2024/02/02 02:59:09;;;;;;;5.07;2.20;;;;;17.10;101872.00;;;;2050868;28;20243;-58
2024/02/02 03:00:10;;;;;;;3.20;1.67;;;;;17.10;101873.00;;;;2060433;28;20212;-58
2024/02/02 03:01:10;;;;;;;3.72;1.55;;;;;17.10;101870.00;;;;2061029;28;20214;-58
2024/02/02 03:02:10;;;;;;;4.40;2.00;;;;;17.10;101870.00;;;;2061600;28;20564;-58
2024/02/02 03:03:11;;;;;;;4.20;1.80;;;;;17.10;101883.00;;;;2061553;28;20210;-58
2024/02/02 03:04:11;;;;;;;2.93;1.70;;;;;17.10;101875.00;;;;2051370;28;20234;-58
2024/02/02 03:05:11;;;;;;;6.93;2.80;;;;;17.10;101877.00;;;;2051533;28;20230;-58
2024/02/02 03:06:12;;;;;;;5.13;1.93;;;;;17.10;101871.00;;;;2051128;28;20210;-59
2024/02/02 03:07:12;;;;;;;5.37;2.27;;;;;17.10;101739.00;;;;2061495;28;20613;-58
2024/02/02 03:08:12;;;;;;;4.07;2.40;;;;;17.10;101880.00;;;;2060947;28;20644;-58
2024/02/02 03:09:13;;;;;;;5.17;2.50;;;;;17.10;101878.00;;;;2043186;28;20642;-58
2024/02/02 03:10:14;;;;;;;4.72;2.05;;;;;17.10;101884.00;;;;2053087;28;20235;-58
2024/02/02 03:11:14;;;;;;;5.40;2.60;;;;;17.10;101881.00;;;;2055294;28;20322;-58
2024/02/02 03:12:15;;;;;;;5.63;2.13;;;;;17.10;101895.00;;;;2060924;28;20225;-58
2024/02/02 03:13:15;;;;;;;5.80;2.47;;;;;17.10;101891.00;;;;2060174;28;20231;-58
2024/02/02 03:14:16;;;;;;;4.37;2.30;;;;;17.10;101896.00;;;;2051753;28;20240;-58
2024/02/02 03:15:16;;;;;;;5.90;2.07;;;;;17.10;101886.00;;;;2059505;28;20786;-58
2024/02/02 03:16:16;;;;;;;4.20;2.20;;;;;17.10;101886.00;;;;2060704;28;20228;-59
2024/02/02 03:17:17;;;;;;;6.03;2.73;;;;;17.10;101881.00;;;;2060839;28;20217;-58
2024/02/02 03:18:17;;;;;;;5.10;1.70;;;;;17.10;101882.00;;;;2059407;28;20731;-59
2024/02/02 03:19:17;;;;;;;4.87;1.70;;;;;17.10;101912.00;;;;2051890;28;20236;-58
2024/02/02 03:20:19;;;;;;;6.07;2.10;;;;;17.10;101870.00;;;;2060460;28;20772;-59
2024/02/02 03:21:19;;;;;;;3.50;1.70;;;;;17.10;101861.00;;;;2061359;28;20464;-58
2024/02/02 03:22:20;;;;;;;5.43;1.70;;;;;17.10;101857.00;;;;2061181;28;20219;-58
2024/02/02 03:23:20;;;;;;;4.50;1.80;;;;;17.10;101844.00;;;;2060107;28;20236;-58
2024/02/02 03:24:20;;;;;;;3.70;1.90;;;;;17.10;101850.00;;;;2051533;28;20311;-58
2024/02/02 03:25:21;;;;;;;5.87;2.10;;;;;17.10;101859.00;;;;2058875;28;20212;-58
2024/02/02 03:26:21;;;;;;;5.07;2.50;;;;;17.10;101858.00;;;;2061272;28;20213;-58
2024/02/02 03:27:21;;;;;;;4.73;2.20;;;;;17.10;101849.00;;;;2052206;28;20240;-58
2024/02/02 03:28:22;;;;;;;5.10;2.07;;;;;17.10;101854.00;;;;2052568;28;20234;-58
2024/02/02 03:29:22;;;;;;;4.47;2.17;;;;;17.10;101846.00;;;;2051492;28;20220;-58
2024/02/02 03:30:22;;;;;;;5.40;1.83;;;;;17.10;101845.00;;;;2060668;28;20252;-58
2024/02/02 03:31:23;;;;;;;4.90;2.10;;;;;17.10;101832.00;;;;2061504;28;20218;-58
2024/02/02 03:32:23;;;;;;;3.60;1.70;;;;;17.10;101847.00;;;;2060722;28;20223;-58
2024/02/02 03:33:24;;;;;;;3.23;1.67;;;;;17.10;101709.00;;;;2061081;28;20223;-58
2024/02/02 03:34:24;;;;;;;5.30;1.57;;;;;17.10;101851.00;;;;2050432;28;20830;-58
2024/02/02 03:35:25;;;;;;;5.70;2.13;;;;;17.10;101846.00;;;;2060048;28;20774;-58
2024/02/02 03:36:25;;;;;;;5.73;2.50;;;;;17.10;101836.00;;;;2061214;28;21097;-59
2024/02/02 03:37:26;;;;;;;4.30;1.90;;;;;17.10;101843.00;;;;2060438;28;21035;-58
2024/02/02 03:38:26;;;;;;;4.47;2.27;;;;;17.10;101839.00;;;;2061315;28;20704;-58
2024/02/02 03:39:26;;;;;;;4.83;2.33;;;;;17.10;101842.00;;;;2050163;28;20225;-58
2024/02/02 03:40:27;;;;;;;6.83;2.13;;;;;17.10;101836.00;;;;2061366;28;20239;-58
2024/02/02 03:41:27;;;;;;;4.40;2.07;;;;;17.10;101837.00;;;;2060418;28;20225;-58
2024/02/02 03:42:27;;;;;;;4.90;2.07;;;;;17.10;101825.00;;;;2061007;28;20229;-58
2024/02/02 03:43:28;;;;;;;4.20;2.17;;;;;17.10;101823.00;;;;2061001;28;20227;-58
2024/02/02 03:44:28;;;;;;;5.30;2.07;;;;;17.10;101833.00;;;;2050904;28;20234;-58
2024/02/02 03:45:30;;;;;;;5.07;1.40;;;;;17.10;101831.00;;;;2050607;28;20230;-59
2024/02/02 03:46:30;;;;;;;5.80;2.80;;;;;17.10;101838.00;;;;2051913;28;20239;-59
2024/02/02 03:47:31;;;;;;;5.90;1.90;;;;;17.10;101846.00;;;;2061113;28;20240;-58
2024/02/02 03:48:31;;;;;;;3.80;1.77;;;;;17.10;101834.00;;;;2060641;28;20222;-58
2024/02/02 03:49:33;;;;;;;4.60;2.27;;;;;17.10;101841.00;;;;2042393;28;20216;-58
2024/02/02 03:50:34;;;;;;;4.97;1.73;;;;;17.10;101828.00;;;;2052681;28;20300;-58
2024/02/02 03:51:34;;;;;;;5.27;2.07;;;;;17.10;101830.00;;;;2060476;28;20220;-58
2024/02/02 03:52:34;;;;;;;5.77;2.27;;;;;17.10;101830.00;;;;2052284;28;20216;-58
2024/02/02 03:53:35;;;;;;;3.90;1.87;;;;;17.10;101837.00;;;;2051947;28;20309;-58
2024/02/02 03:54:35;;;;;;;4.87;1.80;;;;;17.10;101834.00;;;;2051052;28;20249;-58
2024/02/02 03:55:36;;;;;;;3.30;1.80;;;;;17.10;101832.00;;;;2059440;28;20213;-59
2024/02/02 03:56:37;;;;;;;4.93;1.97;;;;;17.00;101837.00;;;;2060665;28;20250;-58
2024/02/02 03:57:38;;;;;;;4.35;2.10;;;;;17.10;101835.00;;;;2061085;28;20214;-58
2024/02/02 03:58:38;;;;;;;7.30;2.27;;;;;17.10;101845.00;;;;2060270;28;20219;-60
2024/02/02 03:59:38;;;;;;;4.13;2.20;;;;;17.10;101836.00;;;;2050736;28;20280;-59
2024/02/02 04:00:39;;;;;;;4.47;1.80;;;;;17.10;101837.00;;;;2052670;28;20218;-58
2024/02/02 04:01:39;;;;;;;3.83;1.77;;;;;17.10;101835.00;;;;2053916;28;20215;-59
2024/02/02 04:02:39;;;;;;;4.80;1.90;;;;;17.10;101837.00;;;;2061059;28;20217;-58
2024/02/02 04:03:40;;;;;;;4.20;1.73;;;;;17.10;101915.00;;;;2052390;28;20300;-58
2024/02/02 04:04:40;;;;;;;4.57;1.87;;;;;17.10;101845.00;;;;2041980;28;20217;-58
2024/02/02 04:05:41;;;;;;;4.50;1.80;;;;;17.10;101846.00;;;;2059884;28;20690;-58
2024/02/02 04:06:41;;;;;;;3.30;2.23;;;;;17.10;101848.00;;;;2060040;28;20209;-59
2024/02/02 04:07:42;;;;;;;4.53;2.00;;;;;17.10;101845.00;;;;2060980;28;20220;-59
2024/02/02 04:08:42;;;;;;;4.37;1.77;;;;;17.10;101872.00;;;;2051887;28;20800;-59
2024/02/02 04:09:42;;;;;;;4.50;2.40;;;;;17.10;101834.00;;;;2034606;28;20698;-58
2024/02/02 04:10:43;;;;;;;3.50;1.80;;;;;17.10;101853.00;;;;2044246;29;20677;-58
2024/02/02 04:11:43;;;;;;;4.17;2.00;;;;;17.10;101847.00;;;;2050438;28;20232;-58
2024/02/02 04:12:43;;;;;;;4.63;1.80;;;;;17.10;101845.00;;;;2060230;28;20213;-59
2024/02/02 04:13:44;;;;;;;4.40;2.10;;;;;17.10;101844.00;;;;2060048;28;20272;-58
2024/02/02 04:14:44;;;;;;;5.00;1.90;;;;;17.10;101840.00;;;;2051138;28;20233;-58
2024/02/02 04:15:45;;;;;;;4.07;2.10;;;;;17.10;101834.00;;;;2058934;28;20260;-58
2024/02/02 04:16:45;;;;;;;7.90;2.23;;;;;17.10;101831.00;;;;2060743;28;20229;-58
2024/02/02 04:17:46;;;;;;;5.20;1.93;;;;;17.10;101832.00;;;;2060718;28;20219;-58
2024/02/02 04:18:46;;;;;;;7.20;1.70;;;;;17.10;101835.00;;;;2060479;28;20248;-58
2024/02/02 04:19:46;;;;;;;3.73;1.70;;;;;17.10;101830.00;;;;2051097;28;20219;-58
2024/02/02 04:20:47;;;;;;;7.80;2.00;;;;;17.00;101832.00;;;;2049078;28;20197;-58
2024/02/02 04:21:47;;;;;;;4.07;1.90;;;;;17.10;101836.00;;;;2047476;28;20233;-58
2024/02/02 04:22:47;;;;;;;3.93;1.80;;;;;17.10;101828.00;;;;2060120;28;20208;-58
2024/02/02 04:23:48;;;;;;;6.10;2.10;;;;;17.10;101834.00;;;;2052360;28;21009;-59
2024/02/02 04:24:48;;;;;;;4.30;1.80;;;;;17.10;101748.00;;;;2042516;28;20213;-58
2024/02/02 04:25:48;;;;;;;4.33;2.00;;;;;17.00;101838.00;;;;2059202;28;21189;-58
2024/02/02 04:26:49;;;;;;;6.43;2.30;;;;;17.00;101843.00;;;;2060757;28;20277;-58
2024/02/02 04:27:49;;;;;;;3.00;1.77;;;;;17.10;101840.00;;;;2060633;28;20234;-58
2024/02/02 04:28:49;;;;;;;3.53;2.13;;;;;17.10;101844.00;;;;2060013;28;20309;-58
2024/02/02 04:29:50;;;;;;;3.63;1.37;;;;;17.10;101845.00;;;;2045897;28;20211;-58
2024/02/02 04:30:50;;;;;;;5.93;2.40;;;;;17.10;101848.00;;;;2060866;28;20240;-58
2024/02/02 04:31:51;;;;;;;3.80;1.73;;;;;17.10;101855.00;;;;2060787;28;20238;-59
2024/02/02 04:32:51;;;;;;;5.53;2.13;;;;;17.00;101850.00;;;;2060248;28;20214;-59
2024/02/02 04:33:51;;;;;;;4.90;1.90;;;;;17.10;101852.00;;;;2055376;28;20205;-59
2024/02/02 04:34:52;;;;;;;4.73;1.87;;;;;17.10;101849.00;;;;2057021;28;20209;-58
2024/02/02 04:35:52;;;;;;;5.30;1.97;;;;;17.10;101857.00;;;;2059227;28;20216;-59
2024/02/02 04:36:52;;;;;;;3.30;1.80;;;;;17.00;101843.00;;;;2059536;28;20213;-58
2024/02/02 04:37:53;;;;;;;6.03;2.63;;;;;17.00;101851.00;;;;2060563;28;20245;-59
2024/02/02 04:38:53;;;;;;;3.93;2.07;;;;;17.00;101836.00;;;;2050563;28;20241;-60
2024/02/02 04:39:54;;;;;;;5.07;2.10;;;;;17.10;101834.00;;;;2043832;28;20349;-58
2024/02/02 04:40:54;;;;;;;3.57;2.07;;;;;17.10;101847.00;;;;2044369;28;20241;-58
2024/02/02 04:41:54;;;;;;;3.00;1.57;;;;;17.00;101849.00;;;;2060093;28;20236;-58
2024/02/02 04:42:55;;;;;;;3.80;1.93;;;;;17.00;101838.00;;;;2060821;28;20247;-58
2024/02/02 04:43:55;;;;;;;3.53;1.90;;;;;17.00;101841.00;;;;2050071;28;20229;-58
2024/02/02 04:44:55;;;;;;;2.70;1.90;;;;;17.10;101841.00;;;;2059418;28;20253;-59
2024/02/02 04:45:56;;;;;;;4.67;2.07;;;;;17.00;101846.00;;;;2060657;28;20233;-58
2024/02/02 04:46:57;;;;;;;4.80;1.90;;;;;17.00;101832.00;;;;2059753;28;20228;-58
2024/02/02 04:47:57;;;;;;;3.80;1.70;;;;;17.00;101839.00;;;;2060816;28;20278;-58
2024/02/02 04:48:58;;;;;;;5.27;2.37;;;;;17.00;101842.00;;;;2050344;28;20634;-58
2024/02/02 04:49:58;;;;;;;4.30;1.70;;;;;17.00;101841.00;;;;2060746;28;20216;-58
2024/02/02 04:50:58;;;;;;;4.40;1.87;;;;;17.00;101837.00;;;;2060100;28;20243;-58
2024/02/02 04:51:59;;;;;;;5.13;2.20;;;;;17.10;101836.00;;;;2060750;28;20225;-59
2024/02/02 04:52:59;;;;;;;3.53;1.80;;;;;17.00;101842.00;;;;2060739;28;20227;-58
2024/02/02 04:53:59;;;;;;;3.63;1.57;;;;;17.00;101837.00;;;;2050231;28;20251;-58
2024/02/02 04:54:59;;;;;;;4.37;2.27;;;;;17.00;101827.00;;;;2059442;28;20270;-58
2024/02/02 04:56:00;;;;;;;5.37;2.20;;;;;17.00;101826.00;;;;2051253;28;20229;-59
2024/02/02 04:57:00;;;;;;;4.40;1.80;;;;;17.10;101820.00;;;;2052029;28;20226;-58
2024/02/02 04:58:00;;;;;;;3.50;2.00;;;;;17.10;101815.00;;;;2058594;28;20225;-58
2024/02/02 04:59:01;;;;;;;3.37;2.00;;;;;17.00;101820.00;;;;2047112;28;20243;-58